Time;durP1;ratioP1;P1;durP2;ratioP2;P2;SDS_P1;SDS_P2;PMS_P1;PMS_P2;Temp;Humidity;BMP_temperature;BMP_pressure;BME280_temperature;BME280_humidity;BME280_pressure;Samples;Min_cycle;Max_cycle;Signal;HPM_P1;HPM_P2
2024/01/28 00:00:16;;;;;;;;;32.00;25.00;;;;;-143.90;100.00;77598.00;4847298;28;105077;-73
2024/01/28 00:02:43;;;;;;;;;29.33;24.67;;;;;-143.90;100.00;77606.28;4846745;28;101980;-72
2024/01/28 00:05:13;;;;;;;;;45.00;35.33;;;;;-143.90;100.00;77600.09;4836042;28;104235;-73
2024/01/28 00:07:40;;;;;;;;;49.33;36.33;;;;;-143.90;100.00;77610.44;4845268;28;103949;-73
2024/01/28 00:10:08;;;;;;;;;42.67;34.33;;;;;-143.90;100.00;77610.44;4848526;28;102868;-73
2024/01/28 00:12:34;;;;;;;;;41.33;38.00;;;;;-143.90;100.00;77608.34;4848897;28;102678;-73
2024/01/28 00:15:01;;;;;;;;;37.00;31.67;;;;;-143.90;100.00;77595.94;4832689;28;103974;-72
2024/01/28 00:17:28;;;;;;;;;38.33;33.67;;;;;-143.90;100.00;77608.34;4850629;28;102453;-73
2024/01/28 00:19:55;;;;;;;;;42.67;34.00;;;;;-143.90;100.00;77606.28;4845266;28;103609;-74
2024/01/28 00:22:22;;;;;;;;;33.33;29.00;;;;;-143.90;100.00;77602.16;4852326;28;102325;-73
2024/01/28 00:24:48;;;;;;;;;50.67;38.67;;;;;-143.90;100.00;77612.50;4846221;28;104013;-73
2024/01/28 00:27:15;;;;;;;;;42.33;34.00;;;;;-143.90;100.00;77608.34;4835030;28;102950;-73
2024/01/28 00:29:42;;;;;;;;;47.67;36.67;;;;;-143.90;100.00;77618.69;4848243;28;102617;-74
2024/01/28 00:32:08;;;;;;;;;38.67;30.33;;;;;-143.90;100.00;77618.69;4848579;28;102303;-73
2024/01/28 00:34:36;;;;;;;;;36.33;33.00;;;;;-143.90;100.00;77618.69;4850557;28;104109;-73
2024/01/28 00:37:04;;;;;;;;;39.00;30.67;;;;;-143.90;100.00;77616.63;4835792;28;102686;-73
2024/01/28 00:39:31;;;;;;;;;30.33;28.67;;;;;-143.90;100.00;77624.91;4847240;28;102932;-73
2024/01/28 00:41:58;;;;;;;;;36.67;29.00;;;;;-143.90;100.00;77624.91;4846222;28;102098;-73
2024/01/28 00:44:25;;;;;;;;;36.67;29.67;;;;;-143.90;100.00;77616.63;4846917;28;104507;-72
2024/01/28 00:46:54;;;;;;;;;22.67;21.00;;;;;-143.90;100.00;77616.63;4845837;28;102181;-71
2024/01/28 00:49:29;;;;;;;;;29.75;19.75;;;;;-143.90;100.00;77616.63;4840377;28;102046;-71
2024/01/28 00:51:56;;;;;;;;;23.00;21.25;;;;;-143.90;100.00;77616.63;4846521;28;102616;-72
2024/01/28 00:54:24;;;;;;;;;26.00;21.00;;;;;-143.90;100.00;77616.63;4847031;28;104002;-71
2024/01/28 00:56:52;;;;;;;;;34.33;27.67;;;;;-143.90;100.00;77616.63;4846343;28;104143;-71
2024/01/28 00:59:19;;;;;;;;;45.33;26.67;;;;;-143.90;100.00;77620.78;4831908;28;102057;-71
2024/01/28 01:01:46;;;;;;;;;37.67;30.00;;;;;-143.90;100.00;77624.91;4847386;28;102871;-72
2024/01/28 01:04:13;;;;;;;;;41.67;30.67;;;;;-143.90;100.00;77629.03;4843007;28;104264;-73
2024/01/28 01:06:44;;;;;;;;;36.67;32.00;;;;;-143.90;100.00;77631.13;4843572;28;102757;-72
2024/01/28 01:09:11;;;;;;;;;32.67;26.67;;;;;-143.90;100.00;77616.63;4837486;28;102370;-72
2024/01/28 01:11:38;;;;;;;;;36.33;33.33;;;;;-143.90;100.00;77629.03;4848724;28;102529;-72
2024/01/28 01:14:04;;;;;;;;;26.25;22.00;;;;;-143.90;100.00;77614.56;4845583;28;104147;-72
2024/01/28 01:16:31;;;;;;;;;25.25;22.00;;;;;-143.90;100.00;77606.28;4844139;28;102379;-73
2024/01/28 01:18:57;;;;;;;;;26.67;22.67;;;;;-143.90;100.00;77612.50;4836141;28;102957;-72
2024/01/28 01:21:24;;;;;;;;;22.25;19.00;;;;;-143.90;100.00;77602.16;4843561;28;102597;-72
2024/01/28 01:23:51;;;;;;;;;27.33;24.00;;;;;-143.90;100.00;77610.44;4844200;28;103772;-72
2024/01/28 01:26:17;;;;;;;;;37.00;28.33;;;;;-143.90;100.00;77616.63;4845096;28;102648;-72
2024/01/28 01:28:44;;;;;;;;;37.67;25.33;;;;;-143.90;100.00;77606.28;4845753;28;102056;-72
2024/01/28 01:31:11;;;;;;;;;21.25;16.25;;;;;-143.90;100.00;77595.94;4498428;28;10000233;-73
2024/01/28 01:33:37;;;;;;;;;21.75;16.75;;;;;-143.90;100.00;77589.75;4863392;28;102518;-73
2024/01/28 01:36:05;;;;;;;;;22.25;15.75;;;;;-143.90;100.00;77583.53;4867404;28;102795;-71
2024/01/28 01:38:32;;;;;;;;;16.25;14.00;;;;;-143.90;100.00;77581.47;4859020;28;104326;-72
2024/01/28 01:40:58;;;;;;;;;19.00;17.25;;;;;-143.90;100.00;77577.31;4857376;28;102425;-73
2024/01/28 01:43:25;;;;;;;;;18.00;13.50;;;;;-143.90;100.00;77581.47;4858069;28;104419;-72
2024/01/28 01:45:52;;;;;;;;;22.25;16.75;;;;;-143.90;100.00;77581.47;4862641;28;104135;-73
2024/01/28 01:48:20;;;;;;;;;21.50;17.00;;;;;-143.90;100.00;77585.59;4861989;28;102162;-73
2024/01/28 01:50:47;;;;;;;;;14.50;12.50;;;;;-143.90;100.00;77579.41;4857626;28;102109;-72
2024/01/28 01:53:14;;;;;;;;;15.50;14.00;;;;;-143.90;100.00;77583.53;4847125;28;102217;-72
2024/01/28 01:55:41;;;;;;;;;19.50;15.50;;;;;-143.90;100.00;77579.41;4857076;28;104916;-72
2024/01/28 01:58:08;;;;;;;;;14.50;11.25;;;;;-143.90;100.00;77581.47;4858491;28;102535;-72
2024/01/28 02:00:36;;;;;;;;;17.00;14.75;;;;;-143.90;100.00;77581.47;4866059;28;104460;-72
2024/01/28 02:03:03;;;;;;;;;22.00;17.25;;;;;-143.90;100.00;77579.41;4848414;28;101953;-72
2024/01/28 02:05:30;;;;;;;;;15.75;12.25;;;;;-143.90;100.00;77587.66;4852728;28;111605;-72
2024/01/28 02:07:57;;;;;;;;;25.50;23.75;;;;;-143.90;100.00;77591.81;4859918;28;102200;-73
2024/01/28 02:10:25;;;;;;;;;28.00;28.00;;;;;-143.90;100.00;77589.75;4857842;28;102327;-72
2024/01/28 02:12:52;;;;;;;;;43.33;33.33;;;;;-143.90;100.00;77602.16;4864257;28;102186;-73
2024/01/28 02:15:19;;;;;;;;;49.33;41.67;;;;;-143.90;100.00;77618.69;4853973;28;104151;-73
2024/01/28 02:17:46;;;;;;;;;41.00;36.00;;;;;-143.90;100.00;77616.63;4861936;28;104039;-72
2024/01/28 02:20:13;;;;;;;;;38.33;30.33;;;;;-143.90;100.00;77620.78;4860419;28;102526;-72
2024/01/28 02:22:40;;;;;;;;;46.33;35.00;;;;;-143.90;100.00;77612.50;4863238;28;102467;-72
2024/01/28 02:25:07;;;;;;;;;36.00;30.00;;;;;-143.90;100.00;77629.03;4846605;28;103810;-72
2024/01/28 02:27:35;;;;;;;;;35.00;30.00;;;;;-143.90;100.00;77631.13;4868503;28;102503;-72
2024/01/28 02:30:03;;;;;;;;;28.25;18.25;;;;;-143.90;100.00;77626.97;4861160;28;102263;-73
2024/01/28 02:32:29;;;;;;;;;23.75;19.50;;;;;-143.90;100.00;77624.91;4862109;28;102080;-73
2024/01/28 02:34:57;;;;;;;;;29.50;20.25;;;;;-143.90;100.00;77637.31;4854189;28;103982;-73
2024/01/28 02:37:24;;;;;;;;;26.50;19.50;;;;;-143.90;100.00;77626.97;4856545;28;102400;-72
2024/01/28 02:39:51;;;;;;;;;27.75;21.25;;;;;-143.90;100.00;77633.19;4860156;28;102658;-73
2024/01/28 02:42:17;;;;;;;;;26.00;21.75;;;;;-143.90;100.00;77633.19;4861363;28;102484;-73
2024/01/28 02:44:44;;;;;;;;;33.00;26.50;;;;;-143.90;100.00;77633.19;4859278;28;104066;-72
2024/01/28 02:47:11;;;;;;;;;24.00;18.75;;;;;-143.90;100.00;77633.19;4847471;28;104081;-72
2024/01/28 02:49:37;;;;;;;;;18.00;16.00;;;;;-143.90;100.00;77626.97;4858564;28;102111;-71
2024/01/28 02:52:04;;;;;;;;;19.00;18.00;;;;;-143.90;100.00;77633.19;4856292;28;102013;-72
2024/01/28 02:54:31;;;;;;;;;17.75;14.00;;;;;-143.90;100.00;77624.91;4862115;28;108345;-72
2024/01/28 02:56:58;;;;;;;;;13.25;11.25;;;;;-143.90;100.00;77620.78;4860513;28;102367;-73
2024/01/28 02:59:25;;;;;;;;;19.00;16.50;;;;;-143.90;100.00;77618.69;4856131;28;102171;-71
2024/01/28 03:01:51;;;;;;;;;17.50;14.00;;;;;-143.90;100.00;77622.84;4859353;28;103186;-73
2024/01/28 03:04:18;;;;;;;;;20.75;18.00;;;;;-143.90;100.00;77629.03;4862517;28;104330;-73
2024/01/28 03:06:45;;;;;;;;;19.00;17.00;;;;;-143.90;100.00;77622.84;4863323;28;102633;-72
2024/01/28 03:09:13;;;;;;;;;14.00;11.75;;;;;-143.90;100.00;77616.63;4853606;28;102509;-73
2024/01/28 03:11:40;;;;;;;;;12.00;10.50;;;;;-143.90;100.00;77600.09;4862967;28;102432;-73
2024/01/28 03:14:06;;;;;;;;;22.00;21.50;;;;;-143.90;100.00;77618.69;4864618;28;105674;-72
2024/01/28 03:16:34;;;;;;;;;20.00;16.50;;;;;-143.90;100.00;77608.34;4867030;28;102050;-74
2024/01/28 03:19:00;;;;;;;;;21.00;17.50;;;;;-143.90;100.00;77622.84;4855236;28;103482;-73
2024/01/28 03:21:27;;;;;;;;;25.75;23.75;;;;;-143.90;100.00;77624.91;4866342;28;101971;-73
2024/01/28 03:23:54;;;;;;;;;22.00;15.50;;;;;-143.90;100.00;77624.91;4866076;28;103970;-72
2024/01/28 03:26:21;;;;;;;;;16.75;14.50;;;;;-143.90;100.00;77616.63;4862625;28;102691;-73
2024/01/28 03:28:47;;;;;;;;;24.75;18.00;;;;;-143.90;100.00;77616.63;4859979;28;102201;-73
2024/01/28 03:31:16;;;;;;;;;21.50;20.00;;;;;-143.90;100.00;77624.91;4853898;28;102268;-72
2024/01/28 03:33:42;;;;;;;;;25.75;18.00;;;;;-143.90;100.00;77614.56;4865259;28;104553;-72
2024/01/28 03:36:10;;;;;;;;;20.00;18.00;;;;;-143.90;100.00;77608.34;4863405;28;102175;-71
2024/01/28 03:38:39;;;;;;;;;17.00;14.00;;;;;-143.90;100.00;77612.50;4865579;28;102044;-72
2024/01/28 03:41:06;;;;;;;;;15.75;13.50;;;;;-143.90;100.00;77624.91;4859261;28;104082;-71
2024/01/28 03:43:32;;;;;;;;;25.00;20.00;;;;;-143.90;100.00;77635.25;4858904;28;108715;-73
2024/01/28 03:45:59;;;;;;;;;21.00;17.25;;;;;-143.90;100.00;77633.19;4865303;28;102516;-73
2024/01/28 03:48:25;;;;;;;;;18.75;18.25;;;;;-143.90;100.00;77637.31;4860914;28;102296;-73
2024/01/28 03:50:53;;;;;;;;;17.50;14.25;;;;;-143.90;100.00;77633.19;4864630;28;102079;-73
2024/01/28 03:53:19;;;;;;;;;18.00;13.25;;;;;-143.90;100.00;77633.19;4855833;28;104094;-72
2024/01/28 03:55:46;;;;;;;;;13.00;7.50;;;;;-143.90;100.00;77629.03;4863525;28;102720;-72
2024/01/28 03:58:13;;;;;;;;;13.00;10.00;;;;;-143.90;100.00;77633.19;4862695;28;102713;-72
2024/01/28 04:00:39;;;;;;;;;13.00;10.50;;;;;-143.90;100.00;77633.19;4867654;28;102531;-72
2024/01/28 04:03:06;;;;;;;;;13.50;11.75;;;;;-143.90;100.00;77631.13;4851647;28;104696;-71
2024/01/28 04:05:33;;;;;;;;;13.25;11.50;;;;;-143.90;100.00;77639.38;4866354;28;102134;-74
2024/01/28 04:08:03;;;;;;;;;13.00;10.50;;;;;-143.90;100.00;77633.19;4863406;28;102003;-74
2024/01/28 04:10:30;;;;;;;;;14.25;10.00;;;;;-143.90;100.00;77641.47;4867243;28;102439;-73
2024/01/28 04:12:56;;;;;;;;;9.50;7.50;;;;;-143.90;100.00;77643.53;4861552;28;104033;-74
2024/01/28 04:15:23;;;;;;;;;10.25;9.00;;;;;-143.90;100.00;77645.59;4861477;28;102093;-73
2024/01/28 04:17:50;;;;;;;;;17.00;9.50;;;;;-143.90;100.00;77653.88;4865300;28;102454;-73
2024/01/28 04:20:16;;;;;;;;;12.25;9.50;;;;;-143.90;100.00;77649.72;4863762;28;102574;-73
2024/01/28 04:22:43;;;;;;;;;11.25;7.50;;;;;-143.90;100.00;77647.66;4866283;28;104061;-73
2024/01/28 04:25:10;;;;;;;;;11.50;9.00;;;;;-143.90;100.00;77645.59;4851861;28;103817;-73
2024/01/28 04:27:36;;;;;;;;;9.00;6.00;;;;;-143.90;100.00;77639.38;4868698;28;102726;-73
2024/01/28 04:30:05;;;;;;;;;9.25;7.50;;;;;-143.90;100.00;77643.53;4867508;28;101991;-73
2024/01/28 04:32:31;;;;;;;;;10.25;9.75;;;;;-143.90;100.00;77653.88;4864263;28;104714;-73
2024/01/28 04:34:58;;;;;;;;;11.25;7.25;;;;;-143.90;100.00;77653.88;4856208;28;102451;-73
2024/01/28 04:37:26;;;;;;;;;9.25;7.25;;;;;-143.90;100.00;77658.00;4856094;28;102254;-73
2024/01/28 04:39:56;;;;;;;;;13.25;10.00;;;;;-143.90;100.00;77658.00;4867290;28;102053;-72
2024/01/28 04:42:23;;;;;;;;;9.50;9.50;;;;;-143.90;100.00;77655.94;4861975;28;105164;-72
2024/01/28 04:44:49;;;;;;;;;10.75;7.00;;;;;-143.90;100.00;77651.81;4863277;28;102267;-72
2024/01/28 04:47:16;;;;;;;;;11.00;6.75;;;;;-143.90;100.00;77653.88;4851840;28;104389;-73
2024/01/28 04:49:43;;;;;;;;;9.75;6.50;;;;;-143.90;100.00;77653.88;4865648;28;102708;-72
2024/01/28 04:52:11;;;;;;;;;6.25;2.00;;;;;-143.90;100.00;77658.00;4861985;28;104196;-73
2024/01/28 04:54:38;;;;;;;;;9.50;8.50;;;;;-143.90;100.00;77666.28;4863192;28;102596;-72
2024/01/28 04:57:05;;;;;;;;;9.75;9.00;;;;;-143.90;100.00;77662.13;4851617;28;102219;-73
2024/01/28 04:59:32;;;;;;;;;7.00;7.00;;;;;-143.90;100.00;77664.22;4862887;28;102446;-73
2024/01/28 05:01:59;;;;;;;;;9.50;7.00;;;;;-143.90;100.00;77666.28;4866280;28;104301;-72
2024/01/28 05:04:26;;;;;;;;;10.00;7.25;;;;;-143.90;100.00;77668.34;4865135;28;103370;-72
2024/01/28 05:06:53;;;;;;;;;11.00;8.00;;;;;-143.90;100.00;77678.69;4846312;28;102500;-73
2024/01/28 05:09:21;;;;;;;;;10.00;9.00;;;;;-143.90;100.00;77674.56;4855407;28;102555;-73
2024/01/28 05:11:47;;;;;;;;;10.00;10.00;;;;;-143.90;100.00;77682.81;4861951;28;104134;-73
2024/01/28 05:14:14;;;;;;;;;10.50;9.00;;;;;-143.90;100.00;77682.81;4856977;28;101961;-73
2024/01/28 05:16:41;;;;;;;;;13.00;10.50;;;;;-143.90;100.00;77682.81;4867275;28;102026;-73
2024/01/28 05:19:08;;;;;;;;;12.50;9.50;;;;;-143.90;100.00;77691.09;4854203;28;102553;-74
2024/01/28 05:21:35;;;;;;;;;13.00;10.75;;;;;-143.90;100.00;77682.81;4865869;28;104608;-72
2024/01/28 05:24:02;;;;;;;;;10.50;9.00;;;;;-143.90;100.00;77678.69;4857935;28;103212;-73
2024/01/28 05:26:28;;;;;;;;;7.50;7.00;;;;;-143.90;100.00;77678.69;4864409;28;101969;-73
2024/01/28 05:28:57;;;;;;;;;10.00;9.00;;;;;-143.90;100.00;77682.81;4859264;28;102514;-72
2024/01/28 05:31:24;;;;;;;;;13.25;10.50;;;;;-143.90;100.00;77684.91;4854778;28;104590;-72
2024/01/28 05:33:50;;;;;;;;;10.00;6.75;;;;;-143.90;100.00;77689.03;4868054;28;104604;-72
2024/01/28 05:36:17;;;;;;;;;9.00;8.00;;;;;-143.90;100.00;77672.47;4863057;28;102340;-73
2024/01/28 05:38:47;;;;;;;;;8.75;6.50;;;;;-143.90;100.00;77672.47;4852682;28;101976;-73
2024/01/28 05:41:14;;;;;;;;;9.75;8.00;;;;;-143.90;100.00;77682.81;4851152;28;103566;-72
2024/01/28 05:43:40;;;;;;;;;7.00;6.50;;;;;-143.90;100.00;77682.81;4860488;28;102327;-73
2024/01/28 05:46:07;;;;;;;;;11.00;8.00;;;;;-143.90;100.00;77691.09;4863195;28;102946;-73
2024/01/28 05:48:34;;;;;;;;;9.50;7.00;;;;;-143.90;100.00;77693.16;4865387;28;102012;-73
2024/01/28 05:51:01;;;;;;;;;8.75;6.00;;;;;-143.90;100.00;77689.03;4849933;28;103476;-74
2024/01/28 05:53:27;;;;;;;;;2.25;0.00;;;;;-143.90;100.00;77691.09;4861341;28;102276;-72
2024/01/28 05:55:54;;;;;;;;;6.50;6.25;;;;;-143.90;100.00;77686.97;4861724;28;102618;-73
2024/01/28 05:58:22;;;;;;;;;5.50;5.00;;;;;-143.90;100.00;77691.09;4864073;28;105811;-73
2024/01/28 06:00:49;;;;;;;;;1.50;1.25;;;;;-143.90;100.00;77686.97;4864859;28;103952;-73
2024/01/28 06:03:16;;;;;;;;;4.50;3.00;;;;;-143.90;100.00;77686.97;4850027;28;102656;-72
2024/01/28 06:05:43;;;;;;;;;4.00;1.50;;;;;-143.90;100.00;77686.97;4862602;28;102249;-72
2024/01/28 06:08:10;;;;;;;;;2.00;1.25;;;;;-143.90;100.00;77678.69;4861906;28;102504;-72
2024/01/28 06:10:36;;;;;;;;;2.25;1.25;;;;;-143.90;100.00;77689.03;4869065;28;104414;-72
2024/01/28 06:13:03;;;;;;;;;0.75;0.75;;;;;-143.90;100.00;77686.97;4857021;28;102316;-72
2024/01/28 06:15:30;;;;;;;;;1.25;0.00;;;;;-143.90;100.00;77678.69;4862544;28;102447;-72
2024/01/28 06:17:57;;;;;;;;;1.00;0.50;;;;;-143.90;100.00;77678.69;4863407;28;103964;-72
2024/01/28 06:20:24;;;;;;;;;0.00;0.00;;;;;-143.90;100.00;77682.81;4861598;28;103617;-72
2024/01/28 06:22:51;;;;;;;;;0.00;0.00;;;;;-143.90;100.00;77684.91;4859116;28;102605;-72
2024/01/28 06:25:18;;;;;;;;;1.00;0.00;;;;;-143.90;100.00;77689.03;4852041;28;103640;-72
2024/01/28 06:27:44;;;;;;;;;5.00;2.25;;;;;-143.90;100.00;77699.38;4867888;28;102861;-72
2024/01/28 06:30:12;;;;;;;;;2.00;2.00;;;;;-143.90;100.00;77695.25;4857605;28;103988;-73
2024/01/28 06:32:38;;;;;;;;;10.25;7.00;;;;;-143.90;100.00;77701.44;4864618;28;102461;-73
2024/01/28 06:35:07;;;;;;;;;18.00;14.00;;;;;-143.90;100.00;77711.78;4854220;28;102398;-74
2024/01/28 06:37:33;;;;;;;;;10.25;9.25;;;;;-143.90;100.00;77709.72;4865993;28;101967;-73
2024/01/28 06:40:00;;;;;;;;;13.25;10.00;;;;;-143.90;100.00;77707.66;4859874;28;104501;-73
2024/01/28 06:42:28;;;;;;;;;18.00;13.75;;;;;-143.90;100.00;77699.38;4867502;28;102294;-73
2024/01/28 06:44:55;;;;;;;;;23.50;19.00;;;;;-143.90;100.00;77720.06;4865834;28;102297;-73
2024/01/28 06:47:21;;;;;;;;;20.25;14.75;;;;;-143.90;100.00;77720.06;4861243;28;102401;-73
2024/01/28 06:49:50;;;;;;;;;18.25;14.25;;;;;-143.90;100.00;77709.72;4866793;28;103991;-73
2024/01/28 06:52:17;;;;;;;;;16.25;13.50;;;;;-143.90;100.00;77711.78;4862076;28;103226;-73
2024/01/28 06:54:44;;;;;;;;;11.50;9.25;;;;;-143.90;100.00;77707.66;4867372;28;102308;-73
2024/01/28 06:57:12;;;;;;;;;11.75;10.00;;;;;-143.90;100.00;77705.59;4853879;28;102669;-72
2024/01/28 06:59:43;;;;;;;;;7.50;7.00;;;;;-143.90;100.00;77709.72;4863469;28;104102;-72
2024/01/28 07:02:09;;;;;;;;;11.00;7.00;;;;;-143.90;100.00;77703.50;4867807;28;102323;-72
2024/01/28 07:04:36;;;;;;;;;13.50;9.00;;;;;-143.90;100.00;77697.31;4865978;28;101979;-74
2024/01/28 07:07:03;;;;;;;;;5.00;5.00;;;;;-143.90;100.00;77699.38;4852423;28;102610;-73
2024/01/28 07:09:30;;;;;;;;;5.25;4.50;;;;;-143.90;100.00;77693.16;4865042;28;104071;-73
2024/01/28 07:11:57;;;;;;;;;5.25;3.00;;;;;-143.90;100.00;77697.31;4865744;28;102971;-72
2024/01/28 07:14:24;;;;;;;;;6.00;6.00;;;;;-143.90;100.00;77682.81;4863609;28;102487;-72
2024/01/28 07:16:51;;;;;;;;;6.75;5.25;;;;;-143.90;100.00;77695.25;4864777;28;101969;-73
2024/01/28 07:19:17;;;;;;;;;6.50;3.50;;;;;-143.90;100.00;77691.09;4851114;28;104149;-72
2024/01/28 07:21:44;;;;;;;;;6.00;6.00;;;;;-143.90;100.00;77689.03;4865056;28;101911;-72
2024/01/28 07:24:11;;;;;;;;;7.75;6.50;;;;;-143.90;100.00;77682.81;4863713;28;103597;-72
2024/01/28 07:26:38;;;;;;;;;20.75;16.25;;;;;-143.90;100.00;77701.44;4866147;28;102910;-74
2024/01/28 07:29:05;;;;;;;;;14.75;12.00;;;;;-143.90;100.00;77699.38;4852694;28;108712;-72
2024/01/28 07:31:31;;;;;;;;;13.00;10.50;;;;;-143.90;100.00;77693.16;4866524;28;103476;-72
2024/01/28 07:33:58;;;;;;;;;14.25;11.75;;;;;-143.90;100.00;77693.16;4867803;28;102538;-74
2024/01/28 07:36:25;;;;;;;;;9.00;7.00;;;;;-143.90;100.00;77695.25;4867319;28;102343;-71
2024/01/28 07:38:52;;;;;;;;;11.00;9.25;;;;;-143.90;100.00;77695.25;4863304;28;104056;-73
2024/01/28 07:41:18;;;;;;;;;4.50;3.00;;;;;-143.90;100.00;77699.38;4858400;28;102225;-72
2024/01/28 07:43:45;;;;;;;;;7.00;6.50;;;;;-143.90;100.00;77695.25;4869222;28;101978;-72
2024/01/28 07:46:12;;;;;;;;;11.00;9.00;;;;;-143.90;100.00;77699.38;4867224;28;102024;-72
2024/01/28 07:48:39;;;;;;;;;12.75;10.00;;;;;-143.90;100.00;77705.59;4866946;28;104069;-71
2024/01/28 07:51:06;;;;;;;;;15.00;14.00;;;;;-143.90;100.00;77707.66;4856450;28;102944;-72
2024/01/28 07:53:34;;;;;;;;;10.00;8.50;;;;;-143.90;100.00;77703.50;4873064;28;102485;-72
2024/01/28 07:56:02;;;;;;;;;11.00;10.00;;;;;-143.90;100.00;77693.16;4870875;28;102114;-71
2024/01/28 07:58:29;;;;;;;;;9.50;7.00;;;;;-143.90;100.00;77684.91;4869094;28;104036;-72
2024/01/28 08:00:56;;;;;;;;;9.75;5.00;;;;;-143.90;100.00;77686.97;4869945;28;102264;-72
2024/01/28 08:03:23;;;;;;;;;7.25;6.50;;;;;-143.90;100.00;77670.41;4859350;28;102456;-72
2024/01/28 08:05:49;;;;;;;;;11.75;7.00;;;;;-143.90;100.00;77666.28;4868903;28;102360;-73
2024/01/28 08:08:16;;;;;;;;;6.75;5.00;;;;;-143.90;100.00;77662.13;4867557;28;104099;-72
2024/01/28 08:10:43;;;;;;;;;4.50;4.50;;;;;-143.90;100.00;77658.00;4867010;28;102116;-72
2024/01/28 08:13:09;;;;;;;;;2.75;2.00;;;;;-143.90;100.00;77653.88;4857343;28;101889;-72
2024/01/28 08:15:36;;;;;;;;;1.25;1.25;;;;;-143.90;100.00;77653.88;4877442;28;102030;-74
2024/01/28 08:18:03;;;;;;;;;3.00;3.00;;;;;-143.90;100.00;77641.47;4869815;28;103656;-72
2024/01/28 08:20:30;;;;;;;;;1.00;1.00;;;;;-143.90;100.00;77637.31;4870038;28;102632;-72
2024/01/28 08:22:57;;;;;;;;;2.50;2.25;;;;;-143.90;100.00;77637.31;4859557;28;104988;-72
2024/01/28 08:25:23;;;;;;;;;5.75;2.75;;;;;-143.90;100.00;77641.47;4864851;28;105005;-72
2024/01/28 08:27:50;;;;;;;;;14.50;12.00;;;;;-143.90;100.00;77658.00;4860986;28;103614;-72
2024/01/28 08:30:22;;;;;;;;;22.75;20.25;;;;;-143.90;100.00;77691.09;3605582;28;10104254;-73
2024/01/28 08:32:50;;;;;;;;;15.00;12.00;;;;;-143.90;100.00;77686.97;4855375;28;102425;-73
2024/01/28 08:35:18;;;;;;;;;21.00;15.50;;;;;-143.90;100.00;77682.81;4855505;28;103257;-72
2024/01/28 08:37:45;;;;;;;;;18.00;16.25;;;;;-143.90;100.00;77697.31;4862464;28;104125;-73
2024/01/28 08:40:11;;;;;;;;;20.75;18.25;;;;;-143.90;100.00;77686.97;4864341;28;102417;-72
2024/01/28 08:42:38;;;;;;;;;14.00;12.25;;;;;-143.90;100.00;77682.81;4867102;28;101988;-72
2024/01/28 08:45:05;;;;;;;;;19.25;14.00;;;;;-143.90;100.00;77682.81;4859755;28;102128;-73
2024/01/28 08:47:31;;;;;;;;;21.75;18.00;;;;;-143.90;100.00;77686.97;4862146;28;104153;-74
2024/01/28 08:49:58;;;;;;;;;22.50;19.75;;;;;-143.90;100.00;77693.16;4867487;28;102475;-73
2024/01/28 08:52:25;;;;;;;;;29.00;20.75;;;;;-143.90;100.00;77691.09;4862853;28;102106;-73
2024/01/28 08:54:52;;;;;;;;;23.50;19.75;;;;;-143.90;100.00;77691.09;4865292;28;102082;-72
2024/01/28 08:57:19;;;;;;;;;24.00;18.25;;;;;-143.90;100.00;77684.91;4852214;28;104067;-72
2024/01/28 08:59:45;;;;;;;;;27.25;19.25;;;;;-143.90;100.00;77682.81;4861062;28;103394;-72
2024/01/28 09:02:12;;;;;;;;;14.75;11.75;;;;;-143.90;100.00;77670.41;4865215;28;101984;-72
2024/01/28 09:04:38;;;;;;;;;27.25;20.00;;;;;-143.90;100.00;77678.69;4865275;28;102756;-72
2024/01/28 09:07:05;;;;;;;;;19.75;16.00;;;;;-143.90;100.00;77666.28;4859692;28;108739;-73
2024/01/28 09:09:32;;;;;;;;;20.50;17.00;;;;;-143.90;100.00;77670.41;4862798;28;102751;-72
2024/01/28 09:11:59;;;;;;;;;20.00;15.00;;;;;-143.90;100.00;77664.22;4860708;28;102430;-73
2024/01/28 09:14:26;;;;;;;;;18.00;13.50;;;;;-143.90;100.00;77655.94;4866363;28;102419;-72
2024/01/28 09:16:53;;;;;;;;;22.50;16.00;;;;;-143.90;100.00;77662.13;4865575;28;104111;-72
2024/01/28 09:19:20;;;;;;;;;16.00;13.25;;;;;-143.90;100.00;77662.13;4855121;28;103481;-72
2024/01/28 09:21:46;;;;;;;;;15.75;15.25;;;;;-143.90;100.00;77666.28;4866686;28;102142;-72
2024/01/28 09:24:13;;;;;;;;;17.25;12.50;;;;;-143.90;100.00;77662.13;4865454;28;101971;-72
2024/01/28 09:26:40;;;;;;;;;11.00;10.00;;;;;-143.90;100.00;77655.94;4862843;28;108814;-73
2024/01/28 09:29:07;;;;;;;;;26.50;20.50;;;;;-143.90;100.00;77686.97;4849891;28;102570;-72
2024/01/28 09:31:33;;;;;;;;;22.50;20.00;;;;;-143.90;100.00;77684.91;4860850;28;102841;-72
2024/01/28 09:34:00;;;;;;;;;25.50;19.75;;;;;-143.90;100.00;77684.91;4863575;28;102172;-72
2024/01/28 09:36:27;;;;;;;;;24.75;19.25;;;;;-143.90;100.00;77668.34;4865067;28;105026;-72
2024/01/28 09:38:53;;;;;;;;;17.75;12.75;;;;;-143.90;100.00;77664.22;4862726;28;102929;-72
2024/01/28 09:41:36;;;;;;;;;17.50;15.00;;;;;-143.90;100.00;77670.41;4854743;28;102110;-72
2024/01/28 09:44:03;;;;;;;;;15.00;14.25;;;;;-143.90;100.00;77668.34;4858416;28;102046;-72
2024/01/28 09:46:31;;;;;;;;;14.50;12.25;;;;;-143.90;100.00;77674.56;4861253;28;104260;-72
2024/01/28 09:48:59;;;;;;;;;15.50;14.75;;;;;-143.90;100.00;77655.94;4859891;28;102517;-71
2024/01/28 09:51:26;;;;;;;;;14.25;11.75;;;;;-143.90;100.00;77670.41;4862407;28;101912;-74
2024/01/28 09:53:52;;;;;;;;;19.00;15.50;;;;;-143.90;100.00;77670.41;4865539;28;101905;-73
2024/01/28 09:56:20;;;;;;;;;18.25;14.75;;;;;-143.90;100.00;77682.81;4862550;28;103642;-73
2024/01/28 09:58:47;;;;;;;;;17.00;14.50;;;;;-143.90;100.00;77666.28;4866476;28;103171;-73
2024/01/28 10:01:14;;;;;;;;;16.75;15.75;;;;;-143.90;100.00;77670.41;4848952;28;102721;-71
2024/01/28 10:03:41;;;;;;;;;15.75;12.75;;;;;-143.90;100.00;77662.13;4869830;28;105212;-72
2024/01/28 10:06:08;;;;;;;;;13.50;11.25;;;;;-143.90;100.00;77655.94;4860539;28;105023;-71
2024/01/28 10:08:35;;;;;;;;;6.00;6.00;;;;;-143.90;100.00;77641.47;4864433;28;105528;-72
2024/01/28 10:11:02;;;;;;;;;10.00;7.75;;;;;-143.90;100.00;77629.03;4853549;28;102501;-70
2024/01/28 10:13:29;;;;;;;;;7.25;5.25;;;;;-143.90;100.00;77612.50;4864907;28;102250;-75
2024/01/28 10:15:57;;;;;;;;;8.25;8.25;;;;;-143.90;100.00;77612.50;4863522;28;103980;-71
2024/01/28 10:18:24;;;;;;;;;16.00;13.00;;;;;-143.90;100.00;77620.78;4868820;28;104987;-72
2024/01/28 10:20:52;;;;;;;;;21.50;19.75;;;;;-143.90;100.00;77635.25;4864518;28;102992;-75
2024/01/28 10:23:18;;;;;;;;;16.00;12.25;;;;;-143.90;100.00;77612.50;4859423;28;102634;-72
2024/01/28 10:25:45;;;;;;;;;15.25;12.75;;;;;-143.90;100.00;77608.34;4866382;28;106058;-73
2024/01/28 10:28:12;;;;;;;;;15.00;12.50;;;;;-143.90;100.00;77618.69;4863821;28;102075;-73
2024/01/28 10:30:39;;;;;;;;;21.25;15.25;;;;;-143.90;100.00;77616.63;4862072;28;105737;-73
2024/01/28 10:33:07;;;;;;;;;18.50;15.25;;;;;-143.90;100.00;77620.78;4857083;28;102741;-73
2024/01/28 10:35:36;;;;;;;;;15.75;15.00;;;;;-143.90;100.00;77622.84;4868003;28;104008;-73
2024/01/28 10:38:04;;;;;;;;;22.00;16.50;;;;;-143.90;100.00;77616.63;4867791;28;101999;-71
2024/01/28 10:40:41;;;;;;;;;29.25;21.25;;;;;-143.90;100.00;77624.91;4867107;28;102956;-74
2024/01/28 10:43:11;;;;;;;;;19.25;16.25;;;;;-143.90;100.00;77616.63;4856038;28;102360;-73
2024/01/28 10:45:42;;;;;;;;;33.50;23.50;;;;;-143.90;100.00;77622.84;4861935;28;104164;-74
2024/01/28 10:48:17;;;;;;;;;13.25;8.00;;;;;-143.90;100.00;77608.34;4869035;28;102662;-72